createdAt,value
2023-04-28T00:02:14.869Z,66.60
2023-04-28T00:07:18.307Z,66.50
2023-04-28T00:12:21.635Z,66.60
2023-04-28T00:17:26.429Z,66.80
2023-04-28T00:22:29.936Z,67.80
2023-04-28T00:27:34.728Z,67.00
2023-04-28T00:32:39.681Z,67.00
2023-04-28T00:37:43.571Z,67.00
2023-04-28T00:42:46.908Z,67.00
2023-04-28T00:47:51.838Z,67.10
2023-04-28T00:52:56.065Z,67.00
2023-04-28T00:57:59.691Z,67.10
2023-04-28T01:03:05.136Z,67.10
2023-04-28T01:08:11.520Z,67.20
2023-04-28T01:13:15.156Z,67.90
2023-04-28T01:18:20.041Z,67.50
2023-04-28T01:23:23.712Z,67.40
2023-04-28T01:28:28.732Z,67.30
2023-04-28T01:33:32.231Z,67.50
2023-04-28T01:38:35.761Z,68.20
2023-04-28T01:43:40.515Z,68.20
2023-04-28T01:48:43.913Z,68.20
2023-04-28T01:53:47.295Z,68.30
2023-04-28T01:58:52.243Z,68.40
2023-04-28T02:03:56.322Z,68.30
2023-04-28T02:09:00.629Z,68.20
2023-04-28T02:14:05.322Z,68.10
2023-04-28T02:19:08.695Z,68.20
2023-04-28T02:24:12.084Z,68.10
2023-04-28T02:29:16.840Z,68.30
2023-04-28T02:34:20.193Z,68.50
2023-04-28T02:39:26.702Z,68.50
2023-04-28T02:44:34.203Z,68.30
2023-04-28T02:49:37.595Z,68.10
2023-04-28T02:54:41.520Z,68.20
2023-04-28T02:59:46.247Z,68.30
2023-04-28T03:04:49.702Z,68.20
2023-04-28T03:09:53.121Z,68.20
2023-04-28T03:14:57.855Z,68.10
2023-04-28T03:20:01.319Z,68.10
2023-04-28T03:25:05.433Z,68.20
2023-04-28T03:30:14.985Z,68.30
2023-04-28T03:35:18.625Z,68.20
2023-04-28T03:40:22.675Z,68.20
2023-04-28T03:45:46.227Z,68.20
2023-04-28T03:50:49.785Z,68.20
2023-04-28T03:55:54.390Z,68.30
2023-04-28T04:01:00.839Z,68.30
2023-04-28T04:06:04.487Z,68.30
2023-04-28T04:11:08.124Z,68.50
2023-04-28T04:16:15.874Z,68.50
2023-04-28T04:21:19.680Z,68.60
2023-04-28T04:26:24.343Z,68.60
2023-04-28T04:31:29.651Z,68.80
2023-04-28T04:36:34.014Z,68.80
2023-04-28T04:41:37.477Z,68.70
2023-04-28T04:47:04.891Z,68.70
2023-04-28T04:52:10.395Z,68.80
2023-04-28T04:57:14.272Z,68.90
2023-04-28T05:02:48.583Z,68.90
2023-04-28T05:07:54.356Z,70.30
2023-04-28T05:12:58.990Z,69.50
2023-04-28T05:18:09.775Z,69.70
2023-04-28T05:23:13.309Z,70.10
2023-04-28T05:28:16.958Z,70.60
2023-04-28T05:33:24.859Z,71.20
2023-04-28T05:38:28.285Z,71.40
2023-04-28T05:43:33.278Z,71.70
2023-04-28T05:48:38.037Z,71.80
2023-04-28T05:53:41.816Z,71.90
2023-04-28T05:58:45.704Z,71.80
2023-04-28T06:03:50.809Z,71.90
2023-04-28T06:08:54.308Z,71.70
2023-04-28T06:13:58.048Z,71.60
2023-04-28T06:19:03.810Z,71.50
2023-04-28T06:24:07.591Z,71.40
2023-04-28T06:29:11.329Z,71.20
2023-04-28T06:34:16.531Z,71.20
2023-04-28T06:39:20.094Z,71.20
2023-04-28T06:44:23.649Z,71.10
2023-04-28T06:49:28.449Z,71.10
2023-04-28T06:54:37.434Z,71.00
2023-04-28T06:59:46.283Z,71.10
2023-04-28T07:04:50.987Z,71.00
2023-04-28T07:09:54.452Z,71.00
2023-04-28T07:14:57.805Z,70.90
2023-04-28T07:20:02.494Z,70.90
2023-04-28T07:25:06.839Z,70.90
2023-04-28T07:30:25.652Z,70.80
2023-04-28T07:35:32.242Z,70.80
2023-04-28T07:40:35.691Z,70.70
2023-04-28T07:45:40.396Z,70.70
2023-04-28T07:50:45.256Z,70.70
2023-04-28T07:55:48.683Z,70.60
2023-04-28T08:00:52.112Z,70.60
2023-04-28T08:05:56.955Z,70.60
2023-04-28T08:11:00.388Z,70.60
2023-04-28T08:16:03.836Z,70.60
2023-04-28T08:21:08.849Z,70.60
2023-04-28T08:26:12.218Z,70.60
2023-04-28T08:31:15.618Z,70.50
2023-04-28T08:36:21.210Z,70.50
2023-04-28T08:41:26.180Z,70.50
2023-04-28T08:46:30.210Z,70.50
2023-04-28T08:51:45.604Z,70.50
2023-04-28T08:56:49.746Z,70.50
2023-04-28T09:01:54.185Z,70.60
2023-04-28T09:06:58.935Z,70.50
2023-04-28T09:12:04.946Z,70.50
2023-04-28T09:17:16.382Z,70.50
2023-04-28T09:22:29.903Z,70.50
2023-04-28T09:27:33.354Z,70.40
2023-04-28T09:32:37.229Z,70.50
2023-04-28T09:37:43.468Z,70.40
2023-04-28T09:42:47.833Z,70.40
2023-04-28T09:47:51.351Z,70.40
2023-04-28T09:53:00.147Z,70.40
2023-04-28T09:58:07.947Z,70.40
2023-04-28T10:03:12.629Z,70.50
2023-04-28T10:08:19.880Z,70.50
2023-04-28T10:13:25.118Z,70.40
2023-04-28T10:18:29.202Z,70.40
2023-04-28T10:24:04.969Z,70.50
2023-04-28T10:29:08.640Z,70.50
2023-04-28T10:34:29.573Z,70.60
2023-04-28T10:39:35.593Z,70.60
2023-04-28T10:44:45.162Z,70.60
2023-04-28T10:50:10.462Z,70.60
2023-04-28T10:55:37.240Z,70.40
2023-04-28T11:00:42.685Z,70.60
2023-04-28T11:06:20.363Z,70.60
2023-04-28T11:11:28.546Z,70.40
2023-04-28T11:16:33.001Z,70.40
2023-04-28T11:21:36.411Z,70.50
2023-04-28T11:26:42.396Z,70.50
2023-04-28T11:31:52.199Z,70.50
2023-04-28T11:36:56.020Z,70.50
2023-04-28T11:42:03.501Z,70.60
2023-04-28T11:47:08.416Z,70.40
2023-04-28T11:52:12.615Z,70.20
2023-04-28T11:57:23.189Z,70.50
2023-04-28T12:02:31.812Z,70.40
2023-04-28T12:07:43.848Z,70.40
2023-04-28T12:12:52.344Z,70.60
2023-04-28T12:17:56.315Z,70.40
2023-04-28T12:22:59.781Z,70.50
2023-04-28T12:28:08.203Z,70.60
2023-04-28T12:33:25.023Z,70.40
2023-04-28T12:38:28.786Z,70.50
2023-04-28T12:43:34.553Z,70.40
2023-04-28T12:48:38.229Z,70.50
2023-04-28T12:53:41.591Z,70.80
2023-04-28T12:58:46.597Z,70.90
2023-04-28T13:03:51.229Z,70.80
2023-04-28T13:08:54.810Z,70.90
2023-04-28T13:13:59.552Z,71.00
2023-04-28T13:19:03.648Z,70.80
2023-04-28T13:24:07.949Z,71.20
2023-04-28T13:29:12.735Z,71.20
2023-04-28T13:34:17.863Z,71.10
2023-04-28T13:39:22.120Z,70.90
2023-04-28T13:44:27.027Z,70.80
2023-04-28T13:49:30.422Z,70.80
2023-04-28T13:54:33.782Z,71.10
2023-04-28T13:59:38.546Z,70.60
2023-04-28T14:04:48.432Z,70.90
2023-04-28T14:09:52.151Z,71.00
2023-04-28T14:14:56.980Z,70.70
2023-04-28T14:20:01.438Z,70.80
2023-04-28T14:25:05.286Z,70.80
2023-04-28T14:30:11.030Z,71.40
2023-04-28T14:35:15.574Z,71.50
2023-04-28T14:40:18.964Z,71.00
2023-04-28T14:45:24.495Z,70.60
2023-04-28T14:50:27.877Z,70.60
2023-04-28T14:55:31.738Z,70.90
2023-04-28T15:00:36.902Z,70.80
2023-04-28T15:05:40.438Z,70.30
2023-04-28T15:10:43.815Z,70.20
2023-04-28T15:15:48.971Z,70.50
2023-04-28T15:20:53.406Z,70.80
2023-04-28T15:25:56.782Z,70.60
2023-04-28T15:31:01.661Z,70.20
2023-04-28T15:36:05.525Z,70.60
2023-04-28T15:41:09.149Z,70.10
2023-04-28T15:46:16.971Z,69.90
2023-04-28T15:51:20.484Z,69.80
2023-04-28T15:56:24.018Z,69.90
2023-04-28T16:01:29.475Z,70.00
2023-04-28T16:06:32.908Z,69.80
2023-04-28T16:11:38.552Z,69.80
2023-04-28T16:16:43.367Z,69.70
2023-04-28T16:21:46.792Z,69.70
2023-04-28T16:26:51.254Z,69.90
2023-04-28T16:31:56.401Z,69.70
2023-04-28T16:37:00.885Z,69.80
2023-04-28T16:42:05.390Z,70.00
2023-04-28T16:47:10.218Z,69.90
2023-04-28T16:52:13.621Z,70.60
2023-04-28T16:57:17.013Z,70.40
2023-04-28T17:02:22.063Z,70.20
2023-04-28T17:07:25.773Z,70.30
2023-04-28T17:12:29.100Z,70.20
2023-04-28T17:17:34.606Z,70.10
2023-04-28T17:22:38.082Z,70.00
2023-04-28T17:27:41.417Z,70.00
2023-04-28T17:32:46.402Z,70.00
2023-04-28T17:37:49.844Z,70.00
2023-04-28T17:42:55.572Z,70.00
2023-04-28T17:48:01.173Z,70.00
2023-04-28T17:53:04.579Z,70.00
2023-04-28T17:58:08.635Z,70.00
2023-04-28T18:03:13.489Z,70.00
2023-04-28T18:08:16.854Z,70.00
2023-04-28T18:13:20.380Z,70.00
2023-04-28T18:18:25.885Z,70.30
2023-04-28T18:23:31.224Z,70.00
2023-04-28T18:28:34.909Z,70.00
2023-04-28T18:33:39.699Z,70.00
2023-04-28T18:38:43.081Z,70.10
2023-04-28T18:43:46.587Z,70.00
2023-04-28T18:48:51.254Z,70.10
2023-04-28T18:53:54.637Z,70.10
2023-04-28T18:58:58.082Z,70.10
2023-04-28T19:04:03.117Z,70.10
2023-04-28T19:09:07.153Z,70.20
2023-04-28T19:14:10.513Z,70.10
2023-04-28T19:19:15.242Z,70.80
2023-04-28T19:24:19.104Z,70.10
2023-04-28T19:29:22.466Z,70.20
2023-04-28T19:34:27.158Z,70.10
2023-04-28T19:39:30.535Z,70.10
2023-04-28T19:44:34.142Z,70.20
2023-04-28T19:49:39.115Z,70.20
2023-04-28T19:54:43.717Z,70.20
2023-04-28T19:59:47.379Z,70.20
2023-04-28T20:04:53.146Z,70.20
2023-04-28T20:09:57.133Z,70.20
2023-04-28T20:15:00.827Z,70.40
2023-04-28T20:20:07.812Z,70.40
2023-04-28T20:25:12.279Z,71.10
2023-04-28T20:30:15.601Z,71.80
2023-04-28T20:35:22.821Z,72.10
2023-04-28T20:40:26.305Z,72.30
2023-04-28T20:45:29.647Z,72.60
2023-04-28T20:50:38.545Z,72.70
2023-04-28T20:55:41.950Z,72.70
2023-04-28T21:00:45.487Z,72.70
2023-04-28T21:05:50.987Z,72.80
2023-04-28T21:10:55.293Z,72.90
2023-04-28T21:15:58.825Z,72.70
2023-04-28T21:21:03.580Z,73.00
2023-04-28T21:26:07.780Z,73.30
2023-04-28T21:31:11.175Z,73.30
2023-04-28T21:36:15.898Z,73.50
2023-04-28T21:41:20.295Z,73.70
2023-04-28T21:46:24.060Z,73.60
2023-04-28T21:51:28.792Z,73.70
2023-04-28T21:56:32.161Z,73.90
2023-04-28T22:01:35.833Z,73.70
2023-04-28T22:06:40.934Z,73.90
2023-04-28T22:11:44.337Z,74.10
2023-04-28T22:16:47.680Z,74.20
2023-04-28T22:21:52.431Z,74.20
2023-04-28T22:26:55.827Z,74.30
2023-04-28T22:31:59.649Z,74.30
2023-04-28T22:37:04.661Z,74.30
2023-04-28T22:42:08.410Z,74.50
2023-04-28T22:47:11.830Z,74.50
2023-04-28T22:52:18.253Z,74.60
2023-04-28T22:57:21.739Z,74.70
2023-04-28T23:02:25.518Z,74.70
2023-04-28T23:07:30.584Z,74.80
2023-04-28T23:12:33.950Z,74.80
2023-04-28T23:17:37.415Z,74.80
2023-04-28T23:22:42.202Z,74.90
2023-04-28T23:27:46.052Z,74.80
2023-04-28T23:32:49.449Z,75.10
2023-04-28T23:37:54.147Z,75.20
2023-04-28T23:42:57.978Z,75.20
2023-04-28T23:48:01.434Z,75.20
2023-04-28T23:53:06.244Z,75.20
2023-04-28T23:58:10.189Z,75.20
